sensor_id;sensor_type;location;lat;lon;timestamp;P1;P2;P0
80413;PMS5003;69758;52.580;13.068;2024-02-14T00:01:56;21;18;
80413;PMS5003;69758;52.580;13.068;2024-02-14T00:04:22;20;16;
80413;PMS5003;69758;52.580;13.068;2024-02-14T00:06:47;29;26;
80413;PMS5003;69758;52.580;13.068;2024-02-14T00:09:13;40;39;
80413;PMS5003;69758;52.580;13.068;2024-02-14T00:11:38;41;36;
80413;PMS5003;69758;52.580;13.068;2024-02-14T00:14:03;20;20;
80413;PMS5003;69758;52.580;13.068;2024-02-14T00:16:29;17;17;
80413;PMS5003;69758;52.580;13.068;2024-02-14T00:18:54;13;13;
80413;PMS5003;69758;52.580;13.068;2024-02-14T00:21:20;17;16;
80413;PMS5003;69758;52.580;13.068;2024-02-14T00:23:45;17;17;
80413;PMS5003;69758;52.580;13.068;2024-02-14T00:26:10;16;14;
80413;PMS5003;69758;52.580;13.068;2024-02-14T00:28:36;13;13;
80413;PMS5003;69758;52.580;13.068;2024-02-14T00:31:01;16;15;
80413;PMS5003;69758;52.580;13.068;2024-02-14T00:33:27;16;15;
80413;PMS5003;69758;52.580;13.068;2024-02-14T00:35:52;21;21;
80413;PMS5003;69758;52.580;13.068;2024-02-14T00:38:17;13;12;
80413;PMS5003;69758;52.580;13.068;2024-02-14T00:40:43;17;16;
80413;PMS5003;69758;52.580;13.068;2024-02-14T00:43:08;14;14;
80413;PMS5003;69758;52.580;13.068;2024-02-14T00:45:34;14;14;
80413;PMS5003;69758;52.580;13.068;2024-02-14T00:47:59;15;14;
80413;PMS5003;69758;52.580;13.068;2024-02-14T00:50:24;15;14;
80413;PMS5003;69758;52.580;13.068;2024-02-14T00:52:50;15;13;
80413;PMS5003;69758;52.580;13.068;2024-02-14T00:55:15;16;16;
80413;PMS5003;69758;52.580;13.068;2024-02-14T00:57:41;13;13;
80413;PMS5003;69758;52.580;13.068;2024-02-14T01:00:07;16;16;
80413;PMS5003;69758;52.580;13.068;2024-02-14T01:02:32;15;15;
80413;PMS5003;69758;52.580;13.068;2024-02-14T01:04:57;12;11;
80413;PMS5003;69758;52.580;13.068;2024-02-14T01:07:22;13;12;
80413;PMS5003;69758;52.580;13.068;2024-02-14T01:09:48;12;12;
80413;PMS5003;69758;52.580;13.068;2024-02-14T01:12:14;16;16;
80413;PMS5003;69758;52.580;13.068;2024-02-14T01:14:39;20;19;
80413;PMS5003;69758;52.580;13.068;2024-02-14T01:17:04;25;22;
80413;PMS5003;69758;52.580;13.068;2024-02-14T01:19:30;15;15;
80413;PMS5003;69758;52.580;13.068;2024-02-14T01:21:55;20;20;
80413;PMS5003;69758;52.580;13.068;2024-02-14T01:24:21;16;16;
80413;PMS5003;69758;52.580;13.068;2024-02-14T01:26:46;12;12;
80413;PMS5003;69758;52.580;13.068;2024-02-14T01:29:12;15;14;
80413;PMS5003;69758;52.580;13.068;2024-02-14T01:31:38;15;14;
80413;PMS5003;69758;52.580;13.068;2024-02-14T01:34:03;12;12;
80413;PMS5003;69758;52.580;13.068;2024-02-14T01:36:29;16;12;
80413;PMS5003;69758;52.580;13.068;2024-02-14T01:38:54;19;17;
80413;PMS5003;69758;52.580;13.068;2024-02-14T01:41:19;21;20;
80413;PMS5003;69758;52.580;13.068;2024-02-14T01:43:45;22;21;
80413;PMS5003;69758;52.580;13.068;2024-02-14T01:46:10;15;15;
80413;PMS5003;69758;52.580;13.068;2024-02-14T01:48:36;14;12;
80413;PMS5003;69758;52.580;13.068;2024-02-14T01:51:02;14;12;
80413;PMS5003;69758;52.580;13.068;2024-02-14T01:53:27;12;11;
80413;PMS5003;69758;52.580;13.068;2024-02-14T01:55:52;14;12;
80413;PMS5003;69758;52.580;13.068;2024-02-14T01:58:18;16;16;
80413;PMS5003;69758;52.580;13.068;2024-02-14T02:00:43;19;16;
80413;PMS5003;69758;52.580;13.068;2024-02-14T02:03:09;11;11;
80413;PMS5003;69758;52.580;13.068;2024-02-14T02:05:34;17;15;
80413;PMS5003;69758;52.580;13.068;2024-02-14T02:07:59;12;12;
80413;PMS5003;69758;52.580;13.068;2024-02-14T02:10:25;14;12;
80413;PMS5003;69758;52.580;13.068;2024-02-14T02:12:50;13;12;
80413;PMS5003;69758;52.580;13.068;2024-02-14T02:15:16;13;12;
80413;PMS5003;69758;52.580;13.068;2024-02-14T02:17:41;13;13;
80413;PMS5003;69758;52.580;13.068;2024-02-14T02:20:07;11;11;
80413;PMS5003;69758;52.580;13.068;2024-02-14T02:22:32;10;10;
80413;PMS5003;69758;52.580;13.068;2024-02-14T02:24:58;12;10;
80413;PMS5003;69758;52.580;13.068;2024-02-14T02:27:23;10;10;
80413;PMS5003;69758;52.580;13.068;2024-02-14T02:29:48;13;13;
80413;PMS5003;69758;52.580;13.068;2024-02-14T02:32:14;12;12;
80413;PMS5003;69758;52.580;13.068;2024-02-14T02:34:39;12;10;
80413;PMS5003;69758;52.580;13.068;2024-02-14T02:37:05;11;10;
80413;PMS5003;69758;52.580;13.068;2024-02-14T02:39:30;10;10;
80413;PMS5003;69758;52.580;13.068;2024-02-14T02:41:56;8;8;
80413;PMS5003;69758;52.580;13.068;2024-02-14T02:44:21;12;11;
80413;PMS5003;69758;52.580;13.068;2024-02-14T02:46:46;10;8;
80413;PMS5003;69758;52.580;13.068;2024-02-14T02:49:12;16;13;
80413;PMS5003;69758;52.580;13.068;2024-02-14T02:51:38;11;10;
80413;PMS5003;69758;52.580;13.068;2024-02-14T02:54:03;12;12;
80413;PMS5003;69758;52.580;13.068;2024-02-14T02:56:29;13;12;
80413;PMS5003;69758;52.580;13.068;2024-02-14T02:58:54;11;11;
80413;PMS5003;69758;52.580;13.068;2024-02-14T03:01:19;17;15;
80413;PMS5003;69758;52.580;13.068;2024-02-14T03:03:44;12;11;
80413;PMS5003;69758;52.580;13.068;2024-02-14T03:06:10;10;10;
80413;PMS5003;69758;52.580;13.068;2024-02-14T03:08:35;13;12;
80413;PMS5003;69758;52.580;13.068;2024-02-14T03:11:03;11;10;
80413;PMS5003;69758;52.580;13.068;2024-02-14T03:13:26;12;12;
80413;PMS5003;69758;52.580;13.068;2024-02-14T03:15:52;11;11;
80413;PMS5003;69758;52.580;13.068;2024-02-14T03:18:17;12;11;
80413;PMS5003;69758;52.580;13.068;2024-02-14T03:20:43;8;8;
80413;PMS5003;69758;52.580;13.068;2024-02-14T03:23:09;11;11;
80413;PMS5003;69758;52.580;13.068;2024-02-14T03:25:39;12;11;
80413;PMS5003;69758;52.580;13.068;2024-02-14T03:28:00;15;10;
80413;PMS5003;69758;52.580;13.068;2024-02-14T03:30:25;12;11;
80413;PMS5003;69758;52.580;13.068;2024-02-14T03:32:50;12;11;
80413;PMS5003;69758;52.580;13.068;2024-02-14T03:35:15;15;13;
80413;PMS5003;69758;52.580;13.068;2024-02-14T03:37:41;10;10;
80413;PMS5003;69758;52.580;13.068;2024-02-14T03:40:07;13;12;
80413;PMS5003;69758;52.580;13.068;2024-02-14T03:42:31;12;10;
80413;PMS5003;69758;52.580;13.068;2024-02-14T03:44:57;13;11;
80413;PMS5003;69758;52.580;13.068;2024-02-14T03:47:23;11;11;
80413;PMS5003;69758;52.580;13.068;2024-02-14T03:49:48;11;11;
80413;PMS5003;69758;52.580;13.068;2024-02-14T03:52:18;10;8;
80413;PMS5003;69758;52.580;13.068;2024-02-14T03:54:39;13;12;
80413;PMS5003;69758;52.580;13.068;2024-02-14T03:57:04;12;12;
80413;PMS5003;69758;52.580;13.068;2024-02-14T03:59:30;10;10;
80413;PMS5003;69758;52.580;13.068;2024-02-14T04:01:55;13;11;
80413;PMS5003;69758;52.580;13.068;2024-02-14T04:04:21;11;11;
80413;PMS5003;69758;52.580;13.068;2024-02-14T04:06:46;13;11;
80413;PMS5003;69758;52.580;13.068;2024-02-14T04:09:12;16;13;
80413;PMS5003;69758;52.580;13.068;2024-02-14T04:11:37;12;12;
80413;PMS5003;69758;52.580;13.068;2024-02-14T04:14:02;15;12;
80413;PMS5003;69758;52.580;13.068;2024-02-14T04:16:28;12;12;
80413;PMS5003;69758;52.580;13.068;2024-02-14T04:18:53;10;10;
80413;PMS5003;69758;52.580;13.068;2024-02-14T04:21:19;13;12;
80413;PMS5003;69758;52.580;13.068;2024-02-14T04:23:44;11;11;
80413;PMS5003;69758;52.580;13.068;2024-02-14T04:26:09;13;13;
80413;PMS5003;69758;52.580;13.068;2024-02-14T04:28:35;13;12;
80413;PMS5003;69758;52.580;13.068;2024-02-14T04:31:00;15;12;
80413;PMS5003;69758;52.580;13.068;2024-02-14T04:33:26;8;8;
80413;PMS5003;69758;52.580;13.068;2024-02-14T04:35:51;13;12;
80413;PMS5003;69758;52.580;13.068;2024-02-14T04:38:16;17;16;
80413;PMS5003;69758;52.580;13.068;2024-02-14T04:40:42;13;9;
80413;PMS5003;69758;52.580;13.068;2024-02-14T04:43:07;12;11;
80413;PMS5003;69758;52.580;13.068;2024-02-14T04:45:33;12;12;
80413;PMS5003;69758;52.580;13.068;2024-02-14T04:47:58;9;8;
80413;PMS5003;69758;52.580;13.068;2024-02-14T04:50:23;14;13;
80413;PMS5003;69758;52.580;13.068;2024-02-14T04:52:49;16;16;
80413;PMS5003;69758;52.580;13.068;2024-02-14T04:55:14;18;16;
80413;PMS5003;69758;52.580;13.068;2024-02-14T04:57:40;18;13;
80413;PMS5003;69758;52.580;13.068;2024-02-14T05:00:06;17;16;
80413;PMS5003;69758;52.580;13.068;2024-02-14T05:02:31;16;14;
80413;PMS5003;69758;52.580;13.068;2024-02-14T05:04:56;14;14;
80413;PMS5003;69758;52.580;13.068;2024-02-14T05:07:21;13;12;
80413;PMS5003;69758;52.580;13.068;2024-02-14T05:09:47;13;13;
80413;PMS5003;69758;52.580;13.068;2024-02-14T05:12:12;17;17;
80413;PMS5003;69758;52.580;13.068;2024-02-14T05:14:38;17;17;
80413;PMS5003;69758;52.580;13.068;2024-02-14T05:17:03;16;13;
80413;PMS5003;69758;52.580;13.068;2024-02-14T05:19:28;12;12;
80413;PMS5003;69758;52.580;13.068;2024-02-14T05:21:54;17;17;
80413;PMS5003;69758;52.580;13.068;2024-02-14T05:24:19;13;12;
80413;PMS5003;69758;52.580;13.068;2024-02-14T05:26:45;12;12;
80413;PMS5003;69758;52.580;13.068;2024-02-14T05:29:10;13;13;
80413;PMS5003;69758;52.580;13.068;2024-02-14T05:31:44;17;17;
80413;PMS5003;69758;52.580;13.068;2024-02-14T05:34:01;17;16;
80413;PMS5003;69758;52.580;13.068;2024-02-14T05:36:26;16;16;
80413;PMS5003;69758;52.580;13.068;2024-02-14T05:38:52;13;13;
80413;PMS5003;69758;52.580;13.068;2024-02-14T05:41:18;21;21;
80413;PMS5003;69758;52.580;13.068;2024-02-14T05:43:43;15;13;
80413;PMS5003;69758;52.580;13.068;2024-02-14T05:46:09;14;14;
80413;PMS5003;69758;52.580;13.068;2024-02-14T05:48:35;13;13;
80413;PMS5003;69758;52.580;13.068;2024-02-14T05:51:00;14;13;
80413;PMS5003;69758;52.580;13.068;2024-02-14T05:53:25;12;12;
80413;PMS5003;69758;52.580;13.068;2024-02-14T05:55:51;13;12;
80413;PMS5003;69758;52.580;13.068;2024-02-14T05:58:16;12;11;
80413;PMS5003;69758;52.580;13.068;2024-02-14T06:00:41;13;13;
80413;PMS5003;69758;52.580;13.068;2024-02-14T06:03:06;17;16;
80413;PMS5003;69758;52.580;13.068;2024-02-14T06:05:32;16;14;
80413;PMS5003;69758;52.580;13.068;2024-02-14T06:07:57;13;12;
80413;PMS5003;69758;52.580;13.068;2024-02-14T06:10:22;14;13;
80413;PMS5003;69758;52.580;13.068;2024-02-14T06:12:48;9;9;
80413;PMS5003;69758;52.580;13.068;2024-02-14T06:15:13;14;13;
80413;PMS5003;69758;52.580;13.068;2024-02-14T06:17:39;17;14;
80413;PMS5003;69758;52.580;13.068;2024-02-14T06:20:05;16;13;
80413;PMS5003;69758;52.580;13.068;2024-02-14T06:22:29;14;14;
80413;PMS5003;69758;52.580;13.068;2024-02-14T06:24:55;13;12;
80413;PMS5003;69758;52.580;13.068;2024-02-14T06:27:20;11;11;
80413;PMS5003;69758;52.580;13.068;2024-02-14T06:29:46;17;16;
80413;PMS5003;69758;52.580;13.068;2024-02-14T06:32:12;12;12;
80413;PMS5003;69758;52.580;13.068;2024-02-14T06:34:37;12;12;
80413;PMS5003;69758;52.580;13.068;2024-02-14T06:37:02;12;12;
80413;PMS5003;69758;52.580;13.068;2024-02-14T06:39:27;12;11;
80413;PMS5003;69758;52.580;13.068;2024-02-14T06:41:53;15;15;
80413;PMS5003;69758;52.580;13.068;2024-02-14T06:44:18;17;15;
80413;PMS5003;69758;52.580;13.068;2024-02-14T06:46:44;13;13;
80413;PMS5003;69758;52.580;13.068;2024-02-14T06:49:09;17;15;
80413;PMS5003;69758;52.580;13.068;2024-02-14T06:51:35;14;14;
80413;PMS5003;69758;52.580;13.068;2024-02-14T06:54:00;16;16;
80413;PMS5003;69758;52.580;13.068;2024-02-14T06:56:25;15;13;
80413;PMS5003;69758;52.580;13.068;2024-02-14T06:58:51;12;12;
80413;PMS5003;69758;52.580;13.068;2024-02-14T07:01:16;13;13;
80413;PMS5003;69758;52.580;13.068;2024-02-14T07:03:42;17;14;
80413;PMS5003;69758;52.580;13.068;2024-02-14T07:06:07;13;13;
80413;PMS5003;69758;52.580;13.068;2024-02-14T07:08:32;17;17;
80413;PMS5003;69758;52.580;13.068;2024-02-14T07:10:58;14;14;
80413;PMS5003;69758;52.580;13.068;2024-02-14T07:13:23;12;11;
80413;PMS5003;69758;52.580;13.068;2024-02-14T07:15:49;15;15;
80413;PMS5003;69758;52.580;13.068;2024-02-14T07:18:14;10;10;
80413;PMS5003;69758;52.580;13.068;2024-02-14T07:20:40;14;14;
80413;PMS5003;69758;52.580;13.068;2024-02-14T07:23:05;15;15;
80413;PMS5003;69758;52.580;13.068;2024-02-14T07:25:31;12;12;
80413;PMS5003;69758;52.580;13.068;2024-02-14T07:27:56;15;15;
80413;PMS5003;69758;52.580;13.068;2024-02-14T07:30:21;13;12;
80413;PMS5003;69758;52.580;13.068;2024-02-14T07:32:47;12;12;
80413;PMS5003;69758;52.580;13.068;2024-02-14T07:35:12;12;12;
80413;PMS5003;69758;52.580;13.068;2024-02-14T07:37:38;15;14;
80413;PMS5003;69758;52.580;13.068;2024-02-14T07:40:03;10;9;
80413;PMS5003;69758;52.580;13.068;2024-02-14T07:42:28;12;10;
80413;PMS5003;69758;52.580;13.068;2024-02-14T07:44:54;12;12;
80413;PMS5003;69758;52.580;13.068;2024-02-14T07:47:19;9;9;
80413;PMS5003;69758;52.580;13.068;2024-02-14T07:49:45;11;10;
80413;PMS5003;69758;52.580;13.068;2024-02-14T07:52:10;12;10;
80413;PMS5003;69758;52.580;13.068;2024-02-14T07:54:35;10;10;
80413;PMS5003;69758;52.580;13.068;2024-02-14T07:57:01;12;10;
80413;PMS5003;69758;52.580;13.068;2024-02-14T07:59:26;10;9;
80413;PMS5003;69758;52.580;13.068;2024-02-14T08:01:51;12;10;
80413;PMS5003;69758;52.580;13.068;2024-02-14T08:04:17;10;9;
80413;PMS5003;69758;52.580;13.068;2024-02-14T08:06:44;13;13;
80413;PMS5003;69758;52.580;13.068;2024-02-14T08:09:07;10;9;
80413;PMS5003;69758;52.580;13.068;2024-02-14T08:11:32;8;8;
80413;PMS5003;69758;52.580;13.068;2024-02-14T08:13:58;10;9;
80413;PMS5003;69758;52.580;13.068;2024-02-14T08:16:23;11;10;
80413;PMS5003;69758;52.580;13.068;2024-02-14T08:18:49;9;9;
80413;PMS5003;69758;52.580;13.068;2024-02-14T08:21:14;8;8;
80413;PMS5003;69758;52.580;13.068;2024-02-14T08:23:40;10;10;
80413;PMS5003;69758;52.580;13.068;2024-02-14T08:26:05;13;10;
80413;PMS5003;69758;52.580;13.068;2024-02-14T08:28:30;8;7;
80413;PMS5003;69758;52.580;13.068;2024-02-14T08:30:55;10;10;
80413;PMS5003;69758;52.580;13.068;2024-02-14T08:33:21;9;8;
80413;PMS5003;69758;52.580;13.068;2024-02-14T08:35:46;11;10;
80413;PMS5003;69758;52.580;13.068;2024-02-14T08:38:11;9;8;
80413;PMS5003;69758;52.580;13.068;2024-02-14T08:40:37;9;9;
80413;PMS5003;69758;52.580;13.068;2024-02-14T08:43:02;9;8;
80413;PMS5003;69758;52.580;13.068;2024-02-14T08:45:28;7;7;
80413;PMS5003;69758;52.580;13.068;2024-02-14T08:47:53;7;7;
80413;PMS5003;69758;52.580;13.068;2024-02-14T08:50:18;7;5;
80413;PMS5003;69758;52.580;13.068;2024-02-14T08:52:44;7;7;
80413;PMS5003;69758;52.580;13.068;2024-02-14T08:55:09;5;5;
80413;PMS5003;69758;52.580;13.068;2024-02-14T08:57:35;8;8;
80413;PMS5003;69758;52.580;13.068;2024-02-14T09:00:00;7;7;
80413;PMS5003;69758;52.580;13.068;2024-02-14T09:02:25;7;4;
80413;PMS5003;69758;52.580;13.068;2024-02-14T09:04:51;7;7;
80413;PMS5003;69758;52.580;13.068;2024-02-14T09:07:17;9;8;
80413;PMS5003;69758;52.580;13.068;2024-02-14T09:09:42;7;5;
80413;PMS5003;69758;52.580;13.068;2024-02-14T09:12:07;10;8;
80413;PMS5003;69758;52.580;13.068;2024-02-14T09:14:32;7;7;
80413;PMS5003;69758;52.580;13.068;2024-02-14T09:16:57;8;7;
80413;PMS5003;69758;52.580;13.068;2024-02-14T09:19:23;9;8;
80413;PMS5003;69758;52.580;13.068;2024-02-14T09:21:48;7;7;
80413;PMS5003;69758;52.580;13.068;2024-02-14T09:24:14;5;5;
80413;PMS5003;69758;52.580;13.068;2024-02-14T09:26:39;7;7;
80413;PMS5003;69758;52.580;13.068;2024-02-14T09:29:04;7;5;
80413;PMS5003;69758;52.580;13.068;2024-02-14T09:31:30;4;4;
80413;PMS5003;69758;52.580;13.068;2024-02-14T09:33:55;5;5;
80413;PMS5003;69758;52.580;13.068;2024-02-14T09:36:21;8;8;
80413;PMS5003;69758;52.580;13.068;2024-02-14T09:38:46;8;7;
80413;PMS5003;69758;52.580;13.068;2024-02-14T09:41:14;7;5;
80413;PMS5003;69758;52.580;13.068;2024-02-14T09:43:38;8;8;
80413;PMS5003;69758;52.580;13.068;2024-02-14T09:46:02;7;7;
80413;PMS5003;69758;52.580;13.068;2024-02-14T09:48:27;7;7;
80413;PMS5003;69758;52.580;13.068;2024-02-14T09:50:53;7;7;
80413;PMS5003;69758;52.580;13.068;2024-02-14T09:53:18;5;5;
80413;PMS5003;69758;52.580;13.068;2024-02-14T09:55:45;9;7;
80413;PMS5003;69758;52.580;13.068;2024-02-14T09:58:09;7;7;
80413;PMS5003;69758;52.580;13.068;2024-02-14T10:00:34;7;5;
80413;PMS5003;69758;52.580;13.068;2024-02-14T10:03:00;5;5;
80413;PMS5003;69758;52.580;13.068;2024-02-14T10:05:25;5;5;
80413;PMS5003;69758;52.580;13.068;2024-02-14T10:07:50;5;5;
80413;PMS5003;69758;52.580;13.068;2024-02-14T10:10:16;7;5;
80413;PMS5003;69758;52.580;13.068;2024-02-14T10:12:41;6;5;
80413;PMS5003;69758;52.580;13.068;2024-02-14T10:15:07;5;5;
80413;PMS5003;69758;52.580;13.068;2024-02-14T10:17:32;4;4;
80413;PMS5003;69758;52.580;13.068;2024-02-14T10:19:57;5;5;
80413;PMS5003;69758;52.580;13.068;2024-02-14T10:22:23;8;6;
80413;PMS5003;69758;52.580;13.068;2024-02-14T10:24:48;5;5;
80413;PMS5003;69758;52.580;13.068;2024-02-14T10:27:15;6;6;
80413;PMS5003;69758;52.580;13.068;2024-02-14T10:29:39;4;4;
80413;PMS5003;69758;52.580;13.068;2024-02-14T10:32:04;6;6;
80413;PMS5003;69758;52.580;13.068;2024-02-14T10:34:30;6;6;
80413;PMS5003;69758;52.580;13.068;2024-02-14T10:36:56;8;8;
80413;PMS5003;69758;52.580;13.068;2024-02-14T10:39:20;10;6;
80413;PMS5003;69758;52.580;13.068;2024-02-14T10:41:46;5;5;
80413;PMS5003;69758;52.580;13.068;2024-02-14T10:44:11;5;5;
80413;PMS5003;69758;52.580;13.068;2024-02-14T10:46:37;5;5;
80413;PMS5003;69758;52.580;13.068;2024-02-14T10:49:03;5;5;
80413;PMS5003;69758;52.580;13.068;2024-02-14T10:51:27;6;6;
80413;PMS5003;69758;52.580;13.068;2024-02-14T10:53:52;4;4;
80413;PMS5003;69758;52.580;13.068;2024-02-14T10:56:18;5;5;
80413;PMS5003;69758;52.580;13.068;2024-02-14T10:58:44;4;4;
80413;PMS5003;69758;52.580;13.068;2024-02-14T11:01:08;5;4;
80413;PMS5003;69758;52.580;13.068;2024-02-14T11:03:34;4;4;
80413;PMS5003;69758;52.580;13.068;2024-02-14T11:06:01;6;6;
80413;PMS5003;69758;52.580;13.068;2024-02-14T11:08:25;5;5;
80413;PMS5003;69758;52.580;13.068;2024-02-14T11:10:53;5;5;
80413;PMS5003;69758;52.580;13.068;2024-02-14T11:13:20;5;5;
80413;PMS5003;69758;52.580;13.068;2024-02-14T11:15:44;5;5;
80413;PMS5003;69758;52.580;13.068;2024-02-14T11:18:06;5;5;
80413;PMS5003;69758;52.580;13.068;2024-02-14T11:20:32;3;3;
80413;PMS5003;69758;52.580;13.068;2024-02-14T11:22:57;4;4;
80413;PMS5003;69758;52.580;13.068;2024-02-14T11:25:22;6;5;
80413;PMS5003;69758;52.580;13.068;2024-02-14T11:27:47;5;5;
80413;PMS5003;69758;52.580;13.068;2024-02-14T11:30:13;5;5;
80413;PMS5003;69758;52.580;13.068;2024-02-14T11:32:38;4;4;
80413;PMS5003;69758;52.580;13.068;2024-02-14T11:35:04;4;4;
80413;PMS5003;69758;52.580;13.068;2024-02-14T11:37:29;4;4;
80413;PMS5003;69758;52.580;13.068;2024-02-14T11:39:54;4;3;
80413;PMS5003;69758;52.580;13.068;2024-02-14T11:42:20;5;4;
80413;PMS5003;69758;52.580;13.068;2024-02-14T11:44:45;4;4;
80413;PMS5003;69758;52.580;13.068;2024-02-14T11:47:10;5;4;
80413;PMS5003;69758;52.580;13.068;2024-02-14T11:49:36;6;6;
80413;PMS5003;69758;52.580;13.068;2024-02-14T11:52:01;6;6;
80413;PMS5003;69758;52.580;13.068;2024-02-14T11:54:26;9;8;
80413;PMS5003;69758;52.580;13.068;2024-02-14T11:56:51;6;6;
80413;PMS5003;69758;52.580;13.068;2024-02-14T11:59:17;6;6;
80413;PMS5003;69758;52.580;13.068;2024-02-14T12:01:42;5;5;
80413;PMS5003;69758;52.580;13.068;2024-02-14T12:04:08;4;3;
80413;PMS5003;69758;52.580;13.068;2024-02-14T12:06:33;5;4;
80413;PMS5003;69758;52.580;13.068;2024-02-14T12:08:58;5;4;
80413;PMS5003;69758;52.580;13.068;2024-02-14T12:11:24;6;4;
80413;PMS5003;69758;52.580;13.068;2024-02-14T12:13:49;3;3;
80413;PMS5003;69758;52.580;13.068;2024-02-14T12:16:14;7;7;
80413;PMS5003;69758;52.580;13.068;2024-02-14T12:18:39;5;4;
80413;PMS5003;69758;52.580;13.068;2024-02-14T12:21:05;6;4;
80413;PMS5003;69758;52.580;13.068;2024-02-14T12:23:30;4;4;
80413;PMS5003;69758;52.580;13.068;2024-02-14T12:26:00;5;5;
80413;PMS5003;69758;52.580;13.068;2024-02-14T12:28:22;4;4;
80413;PMS5003;69758;52.580;13.068;2024-02-14T12:30:47;3;3;
80413;PMS5003;69758;52.580;13.068;2024-02-14T12:33:12;5;5;
80413;PMS5003;69758;52.580;13.068;2024-02-14T12:35:37;5;5;
80413;PMS5003;69758;52.580;13.068;2024-02-14T12:38:02;6;5;
80413;PMS5003;69758;52.580;13.068;2024-02-14T12:40:27;5;5;
80413;PMS5003;69758;52.580;13.068;2024-02-14T12:42:53;5;5;
80413;PMS5003;69758;52.580;13.068;2024-02-14T12:45:18;5;5;
80413;PMS5003;69758;52.580;13.068;2024-02-14T12:47:43;6;5;
80413;PMS5003;69758;52.580;13.068;2024-02-14T12:50:09;5;5;
80413;PMS5003;69758;52.580;13.068;2024-02-14T12:52:34;6;5;
80413;PMS5003;69758;52.580;13.068;2024-02-14T12:54:59;4;4;
80413;PMS5003;69758;52.580;13.068;2024-02-14T12:57:25;4;4;
80413;PMS5003;69758;52.580;13.068;2024-02-14T12:59:50;5;5;
80413;PMS5003;69758;52.580;13.068;2024-02-14T13:02:15;5;5;
80413;PMS5003;69758;52.580;13.068;2024-02-14T13:04:40;6;6;
80413;PMS5003;69758;52.580;13.068;2024-02-14T13:07:06;6;6;
80413;PMS5003;69758;52.580;13.068;2024-02-14T13:09:31;5;5;
80413;PMS5003;69758;52.580;13.068;2024-02-14T13:11:56;4;4;
80413;PMS5003;69758;52.580;13.068;2024-02-14T13:14:22;6;6;
80413;PMS5003;69758;52.580;13.068;2024-02-14T13:16:47;7;6;
80413;PMS5003;69758;52.580;13.068;2024-02-14T13:19:12;6;5;
80413;PMS5003;69758;52.580;13.068;2024-02-14T13:21:38;5;5;
80413;PMS5003;69758;52.580;13.068;2024-02-14T13:24:03;4;4;
80413;PMS5003;69758;52.580;13.068;2024-02-14T13:26:30;5;5;
80413;PMS5003;69758;52.580;13.068;2024-02-14T13:28:54;5;5;
80413;PMS5003;69758;52.580;13.068;2024-02-14T13:31:19;6;6;
80413;PMS5003;69758;52.580;13.068;2024-02-14T13:33:44;4;4;
80413;PMS5003;69758;52.580;13.068;2024-02-14T13:36:09;6;6;
80413;PMS5003;69758;52.580;13.068;2024-02-14T13:38:35;8;7;
80413;PMS5003;69758;52.580;13.068;2024-02-14T13:41:00;5;5;
80413;PMS5003;69758;52.580;13.068;2024-02-14T13:43:25;6;6;
80413;PMS5003;69758;52.580;13.068;2024-02-14T13:45:51;6;6;
80413;PMS5003;69758;52.580;13.068;2024-02-14T13:48:16;6;6;
80413;PMS5003;69758;52.580;13.068;2024-02-14T13:50:41;7;7;
80413;PMS5003;69758;52.580;13.068;2024-02-14T13:53:07;5;5;
80413;PMS5003;69758;52.580;13.068;2024-02-14T13:55:32;5;4;
80413;PMS5003;69758;52.580;13.068;2024-02-14T13:57:57;5;5;
80413;PMS5003;69758;52.580;13.068;2024-02-14T14:00:23;6;6;
80413;PMS5003;69758;52.580;13.068;2024-02-14T14:02:48;6;5;
80413;PMS5003;69758;52.580;13.068;2024-02-14T14:05:13;7;7;
80413;PMS5003;69758;52.580;13.068;2024-02-14T14:07:39;7;7;
80413;PMS5003;69758;52.580;13.068;2024-02-14T14:10:04;11;11;
80413;PMS5003;69758;52.580;13.068;2024-02-14T14:12:29;7;7;
80413;PMS5003;69758;52.580;13.068;2024-02-14T14:14:55;6;6;
80413;PMS5003;69758;52.580;13.068;2024-02-14T14:17:20;7;7;
80413;PMS5003;69758;52.580;13.068;2024-02-14T14:19:45;7;7;
80413;PMS5003;69758;52.580;13.068;2024-02-14T14:22:10;9;9;
80413;PMS5003;69758;52.580;13.068;2024-02-14T14:24:36;7;7;
80413;PMS5003;69758;52.580;13.068;2024-02-14T14:27:01;6;6;
80413;PMS5003;69758;52.580;13.068;2024-02-14T14:29:26;7;7;
80413;PMS5003;69758;52.580;13.068;2024-02-14T14:31:51;6;6;
80413;PMS5003;69758;52.580;13.068;2024-02-14T14:34:17;7;7;
80413;PMS5003;69758;52.580;13.068;2024-02-14T14:36:42;6;6;
80413;PMS5003;69758;52.580;13.068;2024-02-14T14:39:08;6;6;
80413;PMS5003;69758;52.580;13.068;2024-02-14T14:41:33;6;6;
80413;PMS5003;69758;52.580;13.068;2024-02-14T14:43:58;6;6;
80413;PMS5003;69758;52.580;13.068;2024-02-14T14:46:24;6;6;
80413;PMS5003;69758;52.580;13.068;2024-02-14T14:48:49;7;7;
80413;PMS5003;69758;52.580;13.068;2024-02-14T14:51:14;7;6;
80413;PMS5003;69758;52.580;13.068;2024-02-14T14:53:39;6;6;
80413;PMS5003;69758;52.580;13.068;2024-02-14T14:56:05;9;9;
80413;PMS5003;69758;52.580;13.068;2024-02-14T14:58:31;7;7;
80413;PMS5003;69758;52.580;13.068;2024-02-14T15:00:56;6;6;
80413;PMS5003;69758;52.580;13.068;2024-02-14T15:03:21;6;6;
80413;PMS5003;69758;52.580;13.068;2024-02-14T15:05:46;9;9;
80413;PMS5003;69758;52.580;13.068;2024-02-14T15:08:11;7;7;
80413;PMS5003;69758;52.580;13.068;2024-02-14T15:10:37;7;6;
80413;PMS5003;69758;52.580;13.068;2024-02-14T15:13:02;7;7;
80413;PMS5003;69758;52.580;13.068;2024-02-14T15:15:27;5;5;
80413;PMS5003;69758;52.580;13.068;2024-02-14T15:17:52;5;5;
80413;PMS5003;69758;52.580;13.068;2024-02-14T15:20:18;8;8;
80413;PMS5003;69758;52.580;13.068;2024-02-14T15:22:43;9;9;
80413;PMS5003;69758;52.580;13.068;2024-02-14T15:25:08;6;6;
80413;PMS5003;69758;52.580;13.068;2024-02-14T15:27:33;7;7;
80413;PMS5003;69758;52.580;13.068;2024-02-14T15:29:59;7;7;
80413;PMS5003;69758;52.580;13.068;2024-02-14T15:32:24;7;7;
80413;PMS5003;69758;52.580;13.068;2024-02-14T15:34:49;9;8;
80413;PMS5003;69758;52.580;13.068;2024-02-14T15:37:14;7;6;
80413;PMS5003;69758;52.580;13.068;2024-02-14T15:39:40;5;5;
80413;PMS5003;69758;52.580;13.068;2024-02-14T15:42:05;6;6;
80413;PMS5003;69758;52.580;13.068;2024-02-14T15:44:30;8;7;
80413;PMS5003;69758;52.580;13.068;2024-02-14T15:46:55;8;8;
80413;PMS5003;69758;52.580;13.068;2024-02-14T15:49:21;13;11;
80413;PMS5003;69758;52.580;13.068;2024-02-14T15:51:46;9;9;
80413;PMS5003;69758;52.580;13.068;2024-02-14T15:54:12;9;9;
80413;PMS5003;69758;52.580;13.068;2024-02-14T15:56:37;14;11;
80413;PMS5003;69758;52.580;13.068;2024-02-14T15:59:02;10;10;
80413;PMS5003;69758;52.580;13.068;2024-02-14T16:01:27;10;10;
80413;PMS5003;69758;52.580;13.068;2024-02-14T16:03:53;11;9;